sensor_id;sensor_type;location;lat;lon;timestamp;temperature;humidity
17918;DHT22;9084;50.956;3.106;2022-10-18T00:00:05;14.80;99.90
17918;DHT22;9084;50.956;3.106;2022-10-18T00:02:31;14.80;99.90
17918;DHT22;9084;50.956;3.106;2022-10-18T00:05:02;14.80;99.90
17918;DHT22;9084;50.956;3.106;2022-10-18T00:07:33;14.80;99.90
17918;DHT22;9084;50.956;3.106;2022-10-18T00:09:58;14.70;99.90
17918;DHT22;9084;50.956;3.106;2022-10-18T00:12:24;14.70;99.90
17918;DHT22;9084;50.956;3.106;2022-10-18T00:14:52;14.70;99.90
17918;DHT22;9084;50.956;3.106;2022-10-18T00:17:20;14.80;99.90
17918;DHT22;9084;50.956;3.106;2022-10-18T00:19:46;14.80;99.90
17918;DHT22;9084;50.956;3.106;2022-10-18T00:22:14;14.80;99.90
17918;DHT22;9084;50.956;3.106;2022-10-18T00:24:43;14.90;99.90
17918;DHT22;9084;50.956;3.106;2022-10-18T00:27:14;14.90;99.90
17918;DHT22;9084;50.956;3.106;2022-10-18T00:29:42;14.90;99.90
17918;DHT22;9084;50.956;3.106;2022-10-18T00:32:10;14.90;99.90
17918;DHT22;9084;50.956;3.106;2022-10-18T00:34:39;14.90;99.90
17918;DHT22;9084;50.956;3.106;2022-10-18T00:37:05;14.80;99.90
17918;DHT22;9084;50.956;3.106;2022-10-18T00:39:31;14.90;99.90
17918;DHT22;9084;50.956;3.106;2022-10-18T00:41:57;14.80;99.90
17918;DHT22;9084;50.956;3.106;2022-10-18T00:47:02;14.80;99.90
17918;DHT22;9084;50.956;3.106;2022-10-18T00:49:34;14.80;99.90
17918;DHT22;9084;50.956;3.106;2022-10-18T00:54:36;15.00;99.90
17918;DHT22;9084;50.956;3.106;2022-10-18T00:57:04;15.00;99.90
17918;DHT22;9084;50.956;3.106;2022-10-18T00:59:29;15.00;99.90
17918;DHT22;9084;50.956;3.106;2022-10-18T01:01:55;15.00;99.90
17918;DHT22;9084;50.956;3.106;2022-10-18T01:04:21;15.00;99.90
17918;DHT22;9084;50.956;3.106;2022-10-18T01:09:51;15.00;99.90
17918;DHT22;9084;50.956;3.106;2022-10-18T01:15:25;15.10;99.90
17918;DHT22;9084;50.956;3.106;2022-10-18T01:23:58;15.10;99.90
17918;DHT22;9084;50.956;3.106;2022-10-18T01:32:01;15.10;99.90
17918;DHT22;9084;50.956;3.106;2022-10-18T01:34:33;15.20;99.90
17918;DHT22;9084;50.956;3.106;2022-10-18T01:37:02;15.20;99.90
17918;DHT22;9084;50.956;3.106;2022-10-18T01:39:35;15.20;99.90
17918;DHT22;9084;50.956;3.106;2022-10-18T01:42:06;15.20;99.90
17918;DHT22;9084;50.956;3.106;2022-10-18T01:44:36;15.20;99.90
17918;DHT22;9084;50.956;3.106;2022-10-18T01:47:09;15.20;99.90
17918;DHT22;9084;50.956;3.106;2022-10-18T01:49:38;15.20;99.90
17918;DHT22;9084;50.956;3.106;2022-10-18T01:52:08;15.20;99.90
17918;DHT22;9084;50.956;3.106;2022-10-18T01:54:40;15.20;99.90
17918;DHT22;9084;50.956;3.106;2022-10-18T02:00:00;15.20;99.90
17918;DHT22;9084;50.956;3.106;2022-10-18T02:05:13;15.20;99.90
17918;DHT22;9084;50.956;3.106;2022-10-18T02:08:24;15.20;99.90
17918;DHT22;9084;50.956;3.106;2022-10-18T02:11:01;15.20;99.90
17918;DHT22;9084;50.956;3.106;2022-10-18T02:13:41;15.30;99.90
17918;DHT22;9084;50.956;3.106;2022-10-18T02:16:18;15.20;99.90
17918;DHT22;9084;50.956;3.106;2022-10-18T02:18:51;15.20;99.90
17918;DHT22;9084;50.956;3.106;2022-10-18T02:21:20;15.30;99.90
17918;DHT22;9084;50.956;3.106;2022-10-18T02:23:47;15.20;99.90
17918;DHT22;9084;50.956;3.106;2022-10-18T02:26:13;15.20;99.90
17918;DHT22;9084;50.956;3.106;2022-10-18T02:28:40;15.20;99.90
17918;DHT22;9084;50.956;3.106;2022-10-18T02:31:24;15.20;99.90
17918;DHT22;9084;50.956;3.106;2022-10-18T02:34:01;15.20;99.90
17918;DHT22;9084;50.956;3.106;2022-10-18T02:36:37;15.20;99.90
17918;DHT22;9084;50.956;3.106;2022-10-18T02:39:12;15.20;99.90
17918;DHT22;9084;50.956;3.106;2022-10-18T02:41:42;15.20;99.90
17918;DHT22;9084;50.956;3.106;2022-10-18T02:44:10;15.20;99.90
17918;DHT22;9084;50.956;3.106;2022-10-18T02:46:36;15.20;99.90
17918;DHT22;9084;50.956;3.106;2022-10-18T02:49:02;15.20;99.90
17918;DHT22;9084;50.956;3.106;2022-10-18T02:51:30;15.20;99.90
17918;DHT22;9084;50.956;3.106;2022-10-18T02:53:56;15.20;99.90
17918;DHT22;9084;50.956;3.106;2022-10-18T02:56:24;15.20;99.90
17918;DHT22;9084;50.956;3.106;2022-10-18T02:58:50;15.20;99.90
17918;DHT22;9084;50.956;3.106;2022-10-18T03:01:16;15.20;99.90
17918;DHT22;9084;50.956;3.106;2022-10-18T03:03:44;15.20;99.90
17918;DHT22;9084;50.956;3.106;2022-10-18T03:06:10;15.20;99.90
17918;DHT22;9084;50.956;3.106;2022-10-18T03:08:36;15.20;99.90
17918;DHT22;9084;50.956;3.106;2022-10-18T03:11:02;15.20;99.90
17918;DHT22;9084;50.956;3.106;2022-10-18T03:13:28;15.20;99.90
17918;DHT22;9084;50.956;3.106;2022-10-18T03:15:54;15.20;99.90
17918;DHT22;9084;50.956;3.106;2022-10-18T03:18:20;15.20;99.90
17918;DHT22;9084;50.956;3.106;2022-10-18T03:20:46;15.10;99.90
17918;DHT22;9084;50.956;3.106;2022-10-18T03:23:12;15.10;99.90
17918;DHT22;9084;50.956;3.106;2022-10-18T03:25:40;15.10;99.90
17918;DHT22;9084;50.956;3.106;2022-10-18T03:28:09;15.10;99.90
17918;DHT22;9084;50.956;3.106;2022-10-18T03:30:35;15.00;99.90
17918;DHT22;9084;50.956;3.106;2022-10-18T03:33:04;15.00;99.90
17918;DHT22;9084;50.956;3.106;2022-10-18T03:35:30;15.00;99.90
17918;DHT22;9084;50.956;3.106;2022-10-18T03:37:56;15.00;99.90
17918;DHT22;9084;50.956;3.106;2022-10-18T03:40:22;14.90;99.90
17918;DHT22;9084;50.956;3.106;2022-10-18T03:42:50;14.80;99.90
17918;DHT22;9084;50.956;3.106;2022-10-18T03:45:16;14.80;99.90
17918;DHT22;9084;50.956;3.106;2022-10-18T03:47:42;14.80;99.90
17918;DHT22;9084;50.956;3.106;2022-10-18T03:50:10;14.70;99.90
17918;DHT22;9084;50.956;3.106;2022-10-18T03:52:36;14.70;99.90
17918;DHT22;9084;50.956;3.106;2022-10-18T03:55:05;14.60;99.90
17918;DHT22;9084;50.956;3.106;2022-10-18T03:57:31;14.50;99.90
17918;DHT22;9084;50.956;3.106;2022-10-18T03:59:57;14.40;99.90
17918;DHT22;9084;50.956;3.106;2022-10-18T04:02:23;14.40;99.90
17918;DHT22;9084;50.956;3.106;2022-10-18T04:04:49;14.40;99.90
17918;DHT22;9084;50.956;3.106;2022-10-18T04:07:15;14.30;99.90
17918;DHT22;9084;50.956;3.106;2022-10-18T04:09:43;14.30;99.90
17918;DHT22;9084;50.956;3.106;2022-10-18T04:12:09;14.20;99.90
17918;DHT22;9084;50.956;3.106;2022-10-18T04:14:35;14.20;99.90
17918;DHT22;9084;50.956;3.106;2022-10-18T04:17:01;14.20;99.90
17918;DHT22;9084;50.956;3.106;2022-10-18T04:19:27;14.20;99.90
17918;DHT22;9084;50.956;3.106;2022-10-18T04:21:53;14.00;99.90
17918;DHT22;9084;50.956;3.106;2022-10-18T04:24:19;14.00;99.90
17918;DHT22;9084;50.956;3.106;2022-10-18T04:26:45;13.90;99.90
17918;DHT22;9084;50.956;3.106;2022-10-18T04:29:10;13.90;99.90
17918;DHT22;9084;50.956;3.106;2022-10-18T04:31:36;13.80;99.90
17918;DHT22;9084;50.956;3.106;2022-10-18T04:34:02;13.80;99.90
17918;DHT22;9084;50.956;3.106;2022-10-18T04:36:29;13.70;99.90
17918;DHT22;9084;50.956;3.106;2022-10-18T04:38:55;13.60;99.90
17918;DHT22;9084;50.956;3.106;2022-10-18T04:41:24;13.60;99.90
17918;DHT22;9084;50.956;3.106;2022-10-18T04:43:49;13.60;99.90
17918;DHT22;9084;50.956;3.106;2022-10-18T04:46:18;13.50;99.90
17918;DHT22;9084;50.956;3.106;2022-10-18T04:48:43;13.50;99.90
17918;DHT22;9084;50.956;3.106;2022-10-18T04:51:11;13.50;99.90
17918;DHT22;9084;50.956;3.106;2022-10-18T04:53:37;13.50;99.90
17918;DHT22;9084;50.956;3.106;2022-10-18T04:56:06;13.40;99.90
17918;DHT22;9084;50.956;3.106;2022-10-18T04:58:34;13.40;99.90
17918;DHT22;9084;50.956;3.106;2022-10-18T05:01:04;13.40;99.90
17918;DHT22;9084;50.956;3.106;2022-10-18T05:03:30;13.40;99.90
17918;DHT22;9084;50.956;3.106;2022-10-18T05:05:55;13.40;99.90
17918;DHT22;9084;50.956;3.106;2022-10-18T05:08:24;13.40;99.90
17918;DHT22;9084;50.956;3.106;2022-10-18T05:10:52;13.30;99.90
17918;DHT22;9084;50.956;3.106;2022-10-18T05:13:17;13.30;99.90
17918;DHT22;9084;50.956;3.106;2022-10-18T05:15:45;13.20;99.90
17918;DHT22;9084;50.956;3.106;2022-10-18T05:18:11;13.20;99.90
17918;DHT22;9084;50.956;3.106;2022-10-18T05:20:37;13.20;99.90
17918;DHT22;9084;50.956;3.106;2022-10-18T05:23:03;13.20;99.90
17918;DHT22;9084;50.956;3.106;2022-10-18T05:25:29;13.20;99.90
17918;DHT22;9084;50.956;3.106;2022-10-18T05:27:55;13.10;99.90
17918;DHT22;9084;50.956;3.106;2022-10-18T05:30:21;13.10;99.90
17918;DHT22;9084;50.956;3.106;2022-10-18T05:32:50;13.10;99.90
17918;DHT22;9084;50.956;3.106;2022-10-18T05:35:16;13.10;99.90
17918;DHT22;9084;50.956;3.106;2022-10-18T05:37:42;13.10;99.90
17918;DHT22;9084;50.956;3.106;2022-10-18T05:40:08;13.00;99.90
17918;DHT22;9084;50.956;3.106;2022-10-18T05:42:37;13.00;99.90
17918;DHT22;9084;50.956;3.106;2022-10-18T05:45:02;13.00;99.90
17918;DHT22;9084;50.956;3.106;2022-10-18T05:47:28;12.90;99.90
17918;DHT22;9084;50.956;3.106;2022-10-18T05:49:54;12.90;99.90
17918;DHT22;9084;50.956;3.106;2022-10-18T05:52:20;12.90;99.90
17918;DHT22;9084;50.956;3.106;2022-10-18T05:54:46;12.90;99.90
17918;DHT22;9084;50.956;3.106;2022-10-18T05:57:11;12.90;99.90
17918;DHT22;9084;50.956;3.106;2022-10-18T05:59:37;12.90;99.90
17918;DHT22;9084;50.956;3.106;2022-10-18T06:02:08;12.90;99.90
17918;DHT22;9084;50.956;3.106;2022-10-18T06:04:35;13.00;99.90
17918;DHT22;9084;50.956;3.106;2022-10-18T06:07:07;13.00;99.90
17918;DHT22;9084;50.956;3.106;2022-10-18T06:09:33;12.90;99.90
17918;DHT22;9084;50.956;3.106;2022-10-18T06:11:59;12.90;99.90
17918;DHT22;9084;50.956;3.106;2022-10-18T06:14:25;12.80;99.90
17918;DHT22;9084;50.956;3.106;2022-10-18T06:16:51;12.80;99.90
17918;DHT22;9084;50.956;3.106;2022-10-18T06:19:21;12.80;99.90
17918;DHT22;9084;50.956;3.106;2022-10-18T06:21:49;12.80;99.90
17918;DHT22;9084;50.956;3.106;2022-10-18T06:24:15;12.90;99.90
17918;DHT22;9084;50.956;3.106;2022-10-18T06:26:43;12.90;99.90
17918;DHT22;9084;50.956;3.106;2022-10-18T06:29:12;12.90;99.90
17918;DHT22;9084;50.956;3.106;2022-10-18T06:31:38;12.90;99.90
17918;DHT22;9084;50.956;3.106;2022-10-18T06:34:04;12.90;99.90
17918;DHT22;9084;50.956;3.106;2022-10-18T06:36:30;12.90;99.90
17918;DHT22;9084;50.956;3.106;2022-10-18T06:38:58;12.90;99.90
17918;DHT22;9084;50.956;3.106;2022-10-18T06:41:24;12.90;99.90
17918;DHT22;9084;50.956;3.106;2022-10-18T06:43:51;12.90;99.90
17918;DHT22;9084;50.956;3.106;2022-10-18T06:46:18;12.90;99.90
17918;DHT22;9084;50.956;3.106;2022-10-18T06:48:46;12.90;99.90
17918;DHT22;9084;50.956;3.106;2022-10-18T06:51:12;13.00;99.90
17918;DHT22;9084;50.956;3.106;2022-10-18T06:53:39;13.00;99.90
17918;DHT22;9084;50.956;3.106;2022-10-18T06:56:08;13.00;99.90
17918;DHT22;9084;50.956;3.106;2022-10-18T06:58:35;13.10;99.90
17918;DHT22;9084;50.956;3.106;2022-10-18T07:01:09;13.10;99.90
17918;DHT22;9084;50.956;3.106;2022-10-18T07:03:36;13.10;99.90
17918;DHT22;9084;50.956;3.106;2022-10-18T07:06:04;13.10;99.90
17918;DHT22;9084;50.956;3.106;2022-10-18T07:08:30;13.10;99.90
17918;DHT22;9084;50.956;3.106;2022-10-18T07:10:56;13.10;99.90
17918;DHT22;9084;50.956;3.106;2022-10-18T07:13:22;13.10;99.90
17918;DHT22;9084;50.956;3.106;2022-10-18T07:16:15;13.10;99.90
17918;DHT22;9084;50.956;3.106;2022-10-18T07:18:43;13.20;99.90
17918;DHT22;9084;50.956;3.106;2022-10-18T07:21:12;13.20;99.90
17918;DHT22;9084;50.956;3.106;2022-10-18T07:23:40;13.20;99.90
17918;DHT22;9084;50.956;3.106;2022-10-18T07:26:15;13.30;99.90
17918;DHT22;9084;50.956;3.106;2022-10-18T07:28:43;13.20;99.90
17918;DHT22;9084;50.956;3.106;2022-10-18T07:31:12;13.20;99.90
17918;DHT22;9084;50.956;3.106;2022-10-18T07:33:41;13.30;99.90
17918;DHT22;9084;50.956;3.106;2022-10-18T07:36:11;13.30;99.90
17918;DHT22;9084;50.956;3.106;2022-10-18T07:38:37;13.20;99.90
17918;DHT22;9084;50.956;3.106;2022-10-18T07:41:04;13.30;99.90
17918;DHT22;9084;50.956;3.106;2022-10-18T07:43:35;13.30;99.90
17918;DHT22;9084;50.956;3.106;2022-10-18T07:46:03;13.30;99.90
17918;DHT22;9084;50.956;3.106;2022-10-18T07:48:36;13.40;99.90
17918;DHT22;9084;50.956;3.106;2022-10-18T07:51:04;13.40;99.90
17918;DHT22;9084;50.956;3.106;2022-10-18T07:53:32;13.50;99.90
17918;DHT22;9084;50.956;3.106;2022-10-18T07:56:04;13.50;99.90
17918;DHT22;9084;50.956;3.106;2022-10-18T07:58:33;13.50;99.90
17918;DHT22;9084;50.956;3.106;2022-10-18T08:01:04;13.60;99.90
17918;DHT22;9084;50.956;3.106;2022-10-18T08:03:31;13.60;99.90
17918;DHT22;9084;50.956;3.106;2022-10-18T08:05:57;13.70;99.90
17918;DHT22;9084;50.956;3.106;2022-10-18T08:08:24;13.80;99.90
17918;DHT22;9084;50.956;3.106;2022-10-18T08:10:50;13.80;99.90
17918;DHT22;9084;50.956;3.106;2022-10-18T08:13:16;13.90;99.90
17918;DHT22;9084;50.956;3.106;2022-10-18T08:15:46;14.00;99.90
17918;DHT22;9084;50.956;3.106;2022-10-18T08:18:16;14.10;99.90
17918;DHT22;9084;50.956;3.106;2022-10-18T08:20:43;14.20;99.90
17918;DHT22;9084;50.956;3.106;2022-10-18T08:23:12;14.30;99.90
17918;DHT22;9084;50.956;3.106;2022-10-18T08:25:40;14.30;99.90
17918;DHT22;9084;50.956;3.106;2022-10-18T08:28:06;14.40;99.90
17918;DHT22;9084;50.956;3.106;2022-10-18T08:30:34;14.50;99.90
17918;DHT22;9084;50.956;3.106;2022-10-18T08:32:59;14.50;99.90
17918;DHT22;9084;50.956;3.106;2022-10-18T08:35:25;14.60;99.90
17918;DHT22;9084;50.956;3.106;2022-10-18T08:37:52;14.60;99.90
17918;DHT22;9084;50.956;3.106;2022-10-18T08:40:20;14.70;99.90
17918;DHT22;9084;50.956;3.106;2022-10-18T08:45:23;14.80;99.90
17918;DHT22;9084;50.956;3.106;2022-10-18T08:47:50;14.90;99.90
17918;DHT22;9084;50.956;3.106;2022-10-18T08:50:35;14.90;99.90
17918;DHT22;9084;50.956;3.106;2022-10-18T08:55:40;15.00;99.90
17918;DHT22;9084;50.956;3.106;2022-10-18T08:58:16;15.10;99.90
17918;DHT22;9084;50.956;3.106;2022-10-18T09:06:10;15.20;99.90
17918;DHT22;9084;50.956;3.106;2022-10-18T09:17:06;15.40;99.90
17918;DHT22;9084;50.956;3.106;2022-10-18T09:25:18;15.50;99.90
17918;DHT22;9084;50.956;3.106;2022-10-18T09:27:55;15.60;99.90
17918;DHT22;9084;50.956;3.106;2022-10-18T09:36:04;15.80;99.90
17918;DHT22;9084;50.956;3.106;2022-10-18T09:38:39;15.90;99.90
17918;DHT22;9084;50.956;3.106;2022-10-18T09:41:27;16.00;99.90
17918;DHT22;9084;50.956;3.106;2022-10-18T09:44:24;16.00;99.90
17918;DHT22;9084;50.956;3.106;2022-10-18T09:46:55;16.10;99.90
17918;DHT22;9084;50.956;3.106;2022-10-18T09:49:25;16.10;99.90
17918;DHT22;9084;50.956;3.106;2022-10-18T09:51:59;16.20;99.90
17918;DHT22;9084;50.956;3.106;2022-10-18T09:54:46;16.30;99.90
17918;DHT22;9084;50.956;3.106;2022-10-18T09:58:02;16.40;99.90
17918;DHT22;9084;50.956;3.106;2022-10-18T10:00:12;16.40;99.90
17918;DHT22;9084;50.956;3.106;2022-10-18T10:02:40;16.40;99.90
17918;DHT22;9084;50.956;3.106;2022-10-18T10:05:14;16.40;99.90
17918;DHT22;9084;50.956;3.106;2022-10-18T10:07:57;16.30;99.90
17918;DHT22;9084;50.956;3.106;2022-10-18T10:10:28;16.30;99.90
17918;DHT22;9084;50.956;3.106;2022-10-18T10:13:14;16.30;99.90
17918;DHT22;9084;50.956;3.106;2022-10-18T10:16:03;16.30;99.90
17918;DHT22;9084;50.956;3.106;2022-10-18T10:18:35;16.30;99.90
17918;DHT22;9084;50.956;3.106;2022-10-18T10:21:04;16.30;99.90
17918;DHT22;9084;50.956;3.106;2022-10-18T10:23:52;16.40;99.90
17918;DHT22;9084;50.956;3.106;2022-10-18T10:28:56;16.40;99.90
17918;DHT22;9084;50.956;3.106;2022-10-18T10:31:29;16.50;99.90
17918;DHT22;9084;50.956;3.106;2022-10-18T10:34:19;16.50;99.90
17918;DHT22;9084;50.956;3.106;2022-10-18T10:36:55;16.50;99.90
17918;DHT22;9084;50.956;3.106;2022-10-18T10:39:25;16.50;99.90
17918;DHT22;9084;50.956;3.106;2022-10-18T10:41:56;16.40;99.90
17918;DHT22;9084;50.956;3.106;2022-10-18T10:44:28;16.40;99.90
17918;DHT22;9084;50.956;3.106;2022-10-18T10:46:57;16.50;99.90
17918;DHT22;9084;50.956;3.106;2022-10-18T10:49:26;16.50;99.90
17918;DHT22;9084;50.956;3.106;2022-10-18T10:52:03;16.60;99.90
17918;DHT22;9084;50.956;3.106;2022-10-18T10:54:30;16.60;99.90
17918;DHT22;9084;50.956;3.106;2022-10-18T10:57:20;16.70;99.90
17918;DHT22;9084;50.956;3.106;2022-10-18T10:59:50;16.70;99.90
17918;DHT22;9084;50.956;3.106;2022-10-18T11:02:25;16.70;99.90
17918;DHT22;9084;50.956;3.106;2022-10-18T11:05:14;16.90;99.90
17918;DHT22;9084;50.956;3.106;2022-10-18T11:07:43;16.90;99.90
17918;DHT22;9084;50.956;3.106;2022-10-18T11:10:20;16.90;99.90
17918;DHT22;9084;50.956;3.106;2022-10-18T11:13:06;17.00;99.90
17918;DHT22;9084;50.956;3.106;2022-10-18T11:15:42;16.90;99.90
17918;DHT22;9084;50.956;3.106;2022-10-18T11:21:01;16.90;99.90
17918;DHT22;9084;50.956;3.106;2022-10-18T11:23:33;17.00;99.90
17918;DHT22;9084;50.956;3.106;2022-10-18T11:42:36;16.90;99.90
17918;DHT22;9084;50.956;3.106;2022-10-18T11:54:09;17.10;91.30
17918;DHT22;9084;50.956;3.106;2022-10-18T11:56:49;17.00;86.00
17918;DHT22;9084;50.956;3.106;2022-10-18T11:59:43;17.00;91.20
17918;DHT22;9084;50.956;3.106;2022-10-18T12:04:51;17.10;87.00
17918;DHT22;9084;50.956;3.106;2022-10-18T12:07:22;17.10;79.30
17918;DHT22;9084;50.956;3.106;2022-10-18T12:09:49;17.10;90.70
17918;DHT22;9084;50.956;3.106;2022-10-18T12:12:32;17.10;94.40
17918;DHT22;9084;50.956;3.106;2022-10-18T12:15:02;17.10;93.00
17918;DHT22;9084;50.956;3.106;2022-10-18T12:23:00;17.30;96.50
17918;DHT22;9084;50.956;3.106;2022-10-18T12:25:28;17.40;85.60
17918;DHT22;9084;50.956;3.106;2022-10-18T12:27:56;17.40;60.50
17918;DHT22;9084;50.956;3.106;2022-10-18T12:30:36;17.40;54.70
17918;DHT22;9084;50.956;3.106;2022-10-18T12:33:09;17.30;69.00
17918;DHT22;9084;50.956;3.106;2022-10-18T12:39:11;17.40;94.80
17918;DHT22;9084;50.956;3.106;2022-10-18T12:41:39;17.40;78.00
17918;DHT22;9084;50.956;3.106;2022-10-18T12:44:17;17.40;59.20
17918;DHT22;9084;50.956;3.106;2022-10-18T12:46:51;17.50;63.50
17918;DHT22;9084;50.956;3.106;2022-10-18T12:49:35;17.50;75.20
17918;DHT22;9084;50.956;3.106;2022-10-18T12:52:24;17.50;55.10
17918;DHT22;9084;50.956;3.106;2022-10-18T13:11:33;17.50;81.00
17918;DHT22;9084;50.956;3.106;2022-10-18T13:14:20;17.50;79.80
17918;DHT22;9084;50.956;3.106;2022-10-18T13:17:01;17.50;68.60
17918;DHT22;9084;50.956;3.106;2022-10-18T13:24:55;17.60;37.40
17918;DHT22;9084;50.956;3.106;2022-10-18T13:27:52;17.60;41.00
17918;DHT22;9084;50.956;3.106;2022-10-18T13:30:30;17.60;30.60
17918;DHT22;9084;50.956;3.106;2022-10-18T13:57:15;17.60;44.10
17918;DHT22;9084;50.956;3.106;2022-10-18T14:08:08;17.70;51.10
17918;DHT22;9084;50.956;3.106;2022-10-18T14:16:51;17.70;72.10
17918;DHT22;9084;50.956;3.106;2022-10-18T14:22:29;17.80;54.10
17918;DHT22;9084;50.956;3.106;2022-10-18T14:24:59;17.80;55.90
17918;DHT22;9084;50.956;3.106;2022-10-18T14:27:26;17.80;57.50
17918;DHT22;9084;50.956;3.106;2022-10-18T14:30:15;17.80;53.60
17918;DHT22;9084;50.956;3.106;2022-10-18T14:32:45;17.70;60.70
17918;DHT22;9084;50.956;3.106;2022-10-18T14:37:50;17.70;72.40
17918;DHT22;9084;50.956;3.106;2022-10-18T14:42:54;17.60;65.40
17918;DHT22;9084;50.956;3.106;2022-10-18T14:45:22;17.70;53.60
17918;DHT22;9084;50.956;3.106;2022-10-18T14:47:51;17.70;54.80
17918;DHT22;9084;50.956;3.106;2022-10-18T14:50:24;17.60;59.80
17918;DHT22;9084;50.956;3.106;2022-10-18T14:52:53;17.50;58.10
17918;DHT22;9084;50.956;3.106;2022-10-18T14:55:28;17.60;55.70
17918;DHT22;9084;50.956;3.106;2022-10-18T14:57:54;17.60;41.30
17918;DHT22;9084;50.956;3.106;2022-10-18T15:00:26;17.70;40.10
17918;DHT22;9084;50.956;3.106;2022-10-18T15:02:53;17.60;47.00
17918;DHT22;9084;50.956;3.106;2022-10-18T15:05:23;17.60;55.80
17918;DHT22;9084;50.956;3.106;2022-10-18T15:07:55;17.50;59.60
17918;DHT22;9084;50.956;3.106;2022-10-18T15:10:27;17.60;60.00
17918;DHT22;9084;50.956;3.106;2022-10-18T15:12:56;17.70;62.10
17918;DHT22;9084;50.956;3.106;2022-10-18T15:15:28;17.70;57.80
17918;DHT22;9084;50.956;3.106;2022-10-18T15:17:56;17.60;61.50
17918;DHT22;9084;50.956;3.106;2022-10-18T15:20:26;17.60;58.80
17918;DHT22;9084;50.956;3.106;2022-10-18T15:22:53;17.50;62.50
17918;DHT22;9084;50.956;3.106;2022-10-18T15:25:27;17.60;45.40
17918;DHT22;9084;50.956;3.106;2022-10-18T15:27:59;17.60;37.70
17918;DHT22;9084;50.956;3.106;2022-10-18T15:30:28;17.60;23.80
17918;DHT22;9084;50.956;3.106;2022-10-18T15:32:59;17.50;33.00
17918;DHT22;9084;50.956;3.106;2022-10-18T15:35:37;17.50;40.60
17918;DHT22;9084;50.956;3.106;2022-10-18T15:38:25;17.40;47.70
17918;DHT22;9084;50.956;3.106;2022-10-18T15:40:52;17.30;61.30
17918;DHT22;9084;50.956;3.106;2022-10-18T15:45:57;17.30;76.70
17918;DHT22;9084;50.956;3.106;2022-10-18T15:48:27;17.20;79.10
17918;DHT22;9084;50.956;3.106;2022-10-18T15:51:06;17.20;84.80
17918;DHT22;9084;50.956;3.106;2022-10-18T15:56:32;17.10;84.50
17918;DHT22;9084;50.956;3.106;2022-10-18T15:59:04;17.10;92.00
17918;DHT22;9084;50.956;3.106;2022-10-18T16:01:41;17.00;93.40
17918;DHT22;9084;50.956;3.106;2022-10-18T16:04:25;17.10;91.40
17918;DHT22;9084;50.956;3.106;2022-10-18T16:06:55;17.00;92.70
17918;DHT22;9084;50.956;3.106;2022-10-18T16:09:25;16.90;97.00
17918;DHT22;9084;50.956;3.106;2022-10-18T16:11:52;17.00;98.90
17918;DHT22;9084;50.956;3.106;2022-10-18T16:14:20;16.90;99.30
17918;DHT22;9084;50.956;3.106;2022-10-18T16:16:49;16.80;99.90
17918;DHT22;9084;50.956;3.106;2022-10-18T16:19:16;16.80;99.90
17918;DHT22;9084;50.956;3.106;2022-10-18T16:21:49;16.70;99.90
17918;DHT22;9084;50.956;3.106;2022-10-18T16:24:15;16.60;99.90
17918;DHT22;9084;50.956;3.106;2022-10-18T16:26:41;16.50;99.90
17918;DHT22;9084;50.956;3.106;2022-10-18T16:29:12;16.40;99.90
17918;DHT22;9084;50.956;3.106;2022-10-18T16:31:41;16.30;99.90
17918;DHT22;9084;50.956;3.106;2022-10-18T16:34:07;16.20;99.90
17918;DHT22;9084;50.956;3.106;2022-10-18T16:36:37;16.20;99.90
17918;DHT22;9084;50.956;3.106;2022-10-18T16:39:05;16.10;99.90
17918;DHT22;9084;50.956;3.106;2022-10-18T16:41:32;16.00;99.90
17918;DHT22;9084;50.956;3.106;2022-10-18T16:44:00;16.00;99.90
17918;DHT22;9084;50.956;3.106;2022-10-18T16:46:28;15.90;99.90
17918;DHT22;9084;50.956;3.106;2022-10-18T16:48:55;15.90;99.90
17918;DHT22;9084;50.956;3.106;2022-10-18T16:51:21;15.80;99.90
17918;DHT22;9084;50.956;3.106;2022-10-18T16:53:46;15.80;99.90
17918;DHT22;9084;50.956;3.106;2022-10-18T16:56:19;15.70;99.90
17918;DHT22;9084;50.956;3.106;2022-10-18T16:58:46;15.70;99.90
17918;DHT22;9084;50.956;3.106;2022-10-18T17:01:16;15.50;99.90
17918;DHT22;9084;50.956;3.106;2022-10-18T17:03:46;15.50;99.90
17918;DHT22;9084;50.956;3.106;2022-10-18T17:08:40;15.30;99.90
17918;DHT22;9084;50.956;3.106;2022-10-18T17:11:08;15.20;99.90
17918;DHT22;9084;50.956;3.106;2022-10-18T17:13:34;15.20;99.90
17918;DHT22;9084;50.956;3.106;2022-10-18T17:16:00;15.20;99.90
17918;DHT22;9084;50.956;3.106;2022-10-18T17:18:29;15.10;99.90
17918;DHT22;9084;50.956;3.106;2022-10-18T17:20:59;15.00;99.90
17918;DHT22;9084;50.956;3.106;2022-10-18T17:23:28;15.00;99.90
17918;DHT22;9084;50.956;3.106;2022-10-18T17:25:54;15.00;99.90
17918;DHT22;9084;50.956;3.106;2022-10-18T17:28:22;14.90;99.90
17918;DHT22;9084;50.956;3.106;2022-10-18T17:30:48;14.80;99.90
17918;DHT22;9084;50.956;3.106;2022-10-18T17:33:14;14.80;99.90
17918;DHT22;9084;50.956;3.106;2022-10-18T17:35:40;14.70;99.90
17918;DHT22;9084;50.956;3.106;2022-10-18T17:38:11;14.70;99.90
17918;DHT22;9084;50.956;3.106;2022-10-18T17:40:42;14.70;99.90
17918;DHT22;9084;50.956;3.106;2022-10-18T17:43:08;14.70;99.90
17918;DHT22;9084;50.956;3.106;2022-10-18T17:45:34;14.70;99.90
17918;DHT22;9084;50.956;3.106;2022-10-18T17:48:02;14.70;99.90
17918;DHT22;9084;50.956;3.106;2022-10-18T17:50:28;14.60;99.90
17918;DHT22;9084;50.956;3.106;2022-10-18T17:52:54;14.60;99.90
17918;DHT22;9084;50.956;3.106;2022-10-18T17:55:20;14.50;99.90
17918;DHT22;9084;50.956;3.106;2022-10-18T17:57:45;14.50;99.90
17918;DHT22;9084;50.956;3.106;2022-10-18T18:00:12;14.40;99.90
17918;DHT22;9084;50.956;3.106;2022-10-18T18:02:38;14.50;99.90
17918;DHT22;9084;50.956;3.106;2022-10-18T18:05:08;14.50;99.90
17918;DHT22;9084;50.956;3.106;2022-10-18T18:07:37;14.40;99.90
17918;DHT22;9084;50.956;3.106;2022-10-18T18:10:04;14.40;99.90
17918;DHT22;9084;50.956;3.106;2022-10-18T18:12:30;14.40;99.90
17918;DHT22;9084;50.956;3.106;2022-10-18T18:14:56;14.30;99.90
17918;DHT22;9084;50.956;3.106;2022-10-18T18:17:24;14.30;99.90
17918;DHT22;9084;50.956;3.106;2022-10-18T18:19:50;14.30;99.90
17918;DHT22;9084;50.956;3.106;2022-10-18T18:22:18;14.20;99.90
17918;DHT22;9084;50.956;3.106;2022-10-18T18:24:44;14.20;99.90
17918;DHT22;9084;50.956;3.106;2022-10-18T18:27:11;14.10;99.90
17918;DHT22;9084;50.956;3.106;2022-10-18T18:29:38;14.20;99.90
17918;DHT22;9084;50.956;3.106;2022-10-18T18:32:06;14.10;99.90
17918;DHT22;9084;50.956;3.106;2022-10-18T18:34:32;14.10;99.90
17918;DHT22;9084;50.956;3.106;2022-10-18T18:36:59;14.10;99.90
17918;DHT22;9084;50.956;3.106;2022-10-18T18:39:26;14.10;99.90
17918;DHT22;9084;50.956;3.106;2022-10-18T18:41:55;14.10;99.90
17918;DHT22;9084;50.956;3.106;2022-10-18T18:44:21;14.10;99.90
17918;DHT22;9084;50.956;3.106;2022-10-18T18:46:47;14.00;99.90
17918;DHT22;9084;50.956;3.106;2022-10-18T18:49:16;14.00;99.90
17918;DHT22;9084;50.956;3.106;2022-10-18T18:51:41;14.00;99.90
17918;DHT22;9084;50.956;3.106;2022-10-18T18:54:12;14.00;99.90
17918;DHT22;9084;50.956;3.106;2022-10-18T18:56:41;14.00;99.90
17918;DHT22;9084;50.956;3.106;2022-10-18T18:59:07;14.00;99.90